Time;durP1;ratioP1;P1;durP2;ratioP2;P2;SDS_P1;SDS_P2;PMS_P1;PMS_P2;Temp;Humidity;BMP_temperature;BMP_pressure;BME280_temperature;BME280_humidity;BME280_pressure;Samples;Min_cycle;Max_cycle;Signal;HPM_P1;HPM_P2
2023/08/30 00:00:31;;;;;;;0.00;0.00;;;14.90;99.90;;;;;;4924849;28;20050;-69
2023/08/30 00:02:57;;;;;;;0.47;0.47;;;14.80;99.90;;;;;;4921919;28;20369;-69
2023/08/30 00:05:22;;;;;;;0.08;0.08;;;14.90;99.90;;;;;;4941027;28;20083;-69
2023/08/30 00:07:48;;;;;;;0.10;0.10;;;14.90;99.90;;;;;;4914484;28;20032;-69
2023/08/30 00:10:14;;;;;;;0.17;0.17;;;14.70;99.90;;;;;;4914118;28;20400;-69
2023/08/30 00:12:40;;;;;;;0.22;0.20;;;14.70;99.90;;;;;;4925148;28;20041;-69
2023/08/30 00:15:06;;;;;;;0.10;0.10;;;14.60;99.90;;;;;;4917402;28;20052;-69
2023/08/30 00:17:32;;;;;;;0.10;0.10;;;14.60;99.90;;;;;;4942753;28;20044;-69
2023/08/30 00:19:59;;;;;;;0.38;0.38;;;14.60;99.90;;;;;;4903976;28;20031;-69
2023/08/30 00:22:27;;;;;;;1.05;0.55;;;14.60;99.90;;;;;;4903141;28;20408;-69
2023/08/30 00:24:53;;;;;;;0.57;0.57;;;14.50;99.90;;;;;;4947808;28;20045;-69
2023/08/30 00:27:20;;;;;;;0.00;0.00;;;14.60;99.90;;;;;;4947553;28;20052;-69
2023/08/30 00:29:46;;;;;;;0.00;0.00;;;14.50;99.90;;;;;;4953670;28;20485;-69
2023/08/30 00:32:11;;;;;;;0.00;0.00;;;14.50;99.90;;;;;;4923931;28;20488;-69
2023/08/30 00:34:37;;;;;;;0.10;0.10;;;14.50;99.90;;;;;;4936971;28;20080;-69
2023/08/30 00:37:03;;;;;;;0.70;0.57;;;14.50;99.90;;;;;;4924634;28;20094;-69
2023/08/30 00:39:29;;;;;;;0.55;0.55;;;14.50;99.90;;;;;;4939281;28;20049;-69
2023/08/30 00:41:54;;;;;;;0.10;0.10;;;14.40;99.90;;;;;;4913080;28;20225;-69
2023/08/30 00:44:20;;;;;;;0.10;0.10;;;14.40;99.90;;;;;;4973589;28;20051;-69
2023/08/30 00:46:46;;;;;;;1.80;0.35;;;14.30;99.90;;;;;;4977071;28;20044;-69
2023/08/30 00:49:12;;;;;;;0.38;0.38;;;14.30;99.90;;;;;;4917858;28;20048;-69
2023/08/30 00:51:37;;;;;;;0.47;0.47;;;14.30;99.90;;;;;;4935184;28;20050;-69
2023/08/30 00:54:03;;;;;;;0.00;0.00;;;14.30;99.90;;;;;;4943769;28;20494;-69
2023/08/30 00:56:29;;;;;;;0.10;0.10;;;14.20;99.90;;;;;;4914546;28;20058;-69
2023/08/30 00:58:55;;;;;;;0.10;0.10;;;14.20;99.90;;;;;;4906548;28;20048;-69
2023/08/30 01:01:22;;;;;;;0.00;0.00;;;14.20;99.90;;;;;;4922845;28;20060;-69
2023/08/30 01:03:47;;;;;;;0.00;0.00;;;14.10;99.90;;;;;;4911766;28;20045;-69
2023/08/30 01:06:13;;;;;;;0.10;0.10;;;14.10;99.90;;;;;;4907217;28;20400;-69
2023/08/30 01:08:41;;;;;;;0.30;0.30;;;14.10;99.90;;;;;;4962153;28;20042;-69
2023/08/30 01:11:39;;;;;;;0.28;0.28;;;14.10;99.90;;;;;;4963125;28;20042;-69
2023/08/30 01:14:12;;;;;;;0.45;0.45;;;14.10;99.90;;;;;;4940213;28;20076;-69
2023/08/30 01:16:38;;;;;;;1.17;1.08;;;14.10;99.90;;;;;;4959391;28;20044;-69
2023/08/30 01:19:41;;;;;;;0.10;0.10;;;14.00;99.90;;;;;;4965931;28;20496;-69
2023/08/30 01:22:13;;;;;;;0.17;0.17;;;13.90;99.90;;;;;;4899262;28;20182;-69
2023/08/30 01:24:53;;;;;;;0.20;0.20;;;14.00;99.90;;;;;;4973758;28;20285;-69
2023/08/30 01:27:20;;;;;;;0.00;0.00;;;13.90;99.90;;;;;;4972151;28;20077;-69
2023/08/30 01:29:47;;;;;;;0.30;0.30;;;13.90;99.90;;;;;;4925767;28;20055;-69
2023/08/30 01:32:13;;;;;;;0.10;0.10;;;13.90;99.90;;;;;;4958523;28;20067;-69
2023/08/30 01:34:41;;;;;;;0.15;0.15;;;13.80;99.90;;;;;;4938255;28;20057;-69
2023/08/30 01:37:10;;;;;;;0.10;0.10;;;13.90;99.90;;;;;;4928669;28;20502;-69
2023/08/30 01:39:41;;;;;;;0.10;0.10;;;13.90;99.90;;;;;;4950397;28;20044;-69
2023/08/30 01:42:08;;;;;;;0.43;0.43;;;14.00;99.90;;;;;;4922369;28;20040;-69
2023/08/30 01:44:34;;;;;;;0.08;0.08;;;13.90;99.90;;;;;;4924190;28;20048;-69
2023/08/30 01:47:00;;;;;;;0.00;0.00;;;13.90;99.90;;;;;;4944666;28;20044;-69
2023/08/30 01:49:31;;;;;;;0.45;0.45;;;13.90;99.90;;;;;;4945970;28;20069;-69
2023/08/30 01:51:57;;;;;;;0.20;0.20;;;13.90;99.90;;;;;;4927184;28;20040;-69
2023/08/30 01:54:25;;;;;;;0.00;0.00;;;13.70;99.90;;;;;;4908221;28;20397;-69
2023/08/30 01:56:50;;;;;;;0.10;0.10;;;13.70;99.90;;;;;;4944759;28;20052;-69
2023/08/30 01:59:16;;;;;;;0.03;0.03;;;13.70;99.90;;;;;;4959016;28;20036;-69
2023/08/30 02:01:42;;;;;;;0.52;0.50;;;13.70;99.90;;;;;;4947965;28;20067;-69
2023/08/30 02:04:08;;;;;;;0.20;0.20;;;13.70;99.90;;;;;;4918597;28;20189;-69
2023/08/30 02:06:42;;;;;;;0.10;0.10;;;13.70;99.90;;;;;;4928355;28;20048;-69
2023/08/30 02:09:32;;;;;;;1.15;1.05;;;13.70;99.90;;;;;;4955959;28;20044;-69
2023/08/30 02:12:02;;;;;;;0.30;0.30;;;13.70;99.90;;;;;;4950029;28;20068;-69
2023/08/30 02:14:29;;;;;;;0.32;0.32;;;13.70;99.90;;;;;;4911077;28;20130;-69
2023/08/30 02:16:55;;;;;;;0.95;0.75;;;13.80;99.90;;;;;;4933886;28;20084;-69
2023/08/30 02:19:21;;;;;;;0.80;0.80;;;13.90;99.90;;;;;;4955254;28;20050;-69
2023/08/30 02:21:48;;;;;;;0.35;0.35;;;13.80;99.90;;;;;;4918014;28;20043;-69
2023/08/30 02:24:14;;;;;;;0.05;0.05;;;13.80;99.90;;;;;;4940649;28;20040;-69
2023/08/30 02:26:40;;;;;;;0.20;0.20;;;13.80;99.90;;;;;;4913924;28;20059;-69
2023/08/30 02:29:05;;;;;;;3.58;1.35;;;13.80;99.90;;;;;;4932361;28;20398;-69
2023/08/30 02:31:31;;;;;;;0.10;0.10;;;13.90;99.90;;;;;;4931052;28;20067;-69
2023/08/30 02:33:57;;;;;;;0.65;0.65;;;13.90;99.90;;;;;;4927075;28;20044;-69
2023/08/30 02:36:22;;;;;;;0.10;0.10;;;13.90;99.90;;;;;;4938059;28;20578;-69
2023/08/30 02:38:48;;;;;;;0.10;0.10;;;13.90;99.90;;;;;;4949187;28;20480;-69
2023/08/30 02:41:13;;;;;;;0.00;0.00;;;13.90;99.90;;;;;;4912117;28;20044;-69
2023/08/30 02:43:39;;;;;;;0.38;0.38;;;13.90;99.90;;;;;;4910667;28;20047;-69
2023/08/30 02:46:05;;;;;;;1.13;1.08;;;14.00;99.90;;;;;;4943112;28;20170;-69
2023/08/30 02:48:32;;;;;;;0.00;0.00;;;14.00;99.90;;;;;;4922209;28;20037;-69
2023/08/30 02:50:57;;;;;;;0.20;0.20;;;14.00;99.90;;;;;;4931947;28;20056;-69
2023/08/30 02:53:23;;;;;;;0.00;0.00;;;14.10;99.90;;;;;;4906907;28;20577;-69
2023/08/30 02:55:49;;;;;;;0.30;0.30;;;14.10;99.90;;;;;;4950997;28;20738;-69
2023/08/30 02:58:14;;;;;;;0.08;0.08;;;14.10;99.90;;;;;;4922115;28;20059;-69
2023/08/30 03:00:40;;;;;;;0.10;0.10;;;14.10;99.90;;;;;;4956470;28;20041;-69
2023/08/30 03:03:06;;;;;;;0.10;0.10;;;14.10;99.90;;;;;;4920083;28;20037;-69
2023/08/30 03:05:31;;;;;;;0.10;0.10;;;14.10;99.90;;;;;;4961491;28;20048;-69
2023/08/30 03:07:57;;;;;;;0.30;0.30;;;14.20;99.90;;;;;;4944143;28;20433;-69
2023/08/30 03:10:23;;;;;;;0.38;0.38;;;14.20;99.90;;;;;;4940521;28;20078;-70
2023/08/30 03:12:48;;;;;;;0.00;0.00;;;14.20;99.90;;;;;;4946514;28;20042;-70
2023/08/30 03:15:14;;;;;;;0.57;0.57;;;14.30;99.90;;;;;;4914161;28;20110;-70
2023/08/30 03:17:39;;;;;;;0.10;0.10;;;14.30;99.90;;;;;;4933864;28;20045;-70
2023/08/30 03:20:06;;;;;;;0.22;0.22;;;14.30;99.90;;;;;;4949078;28;20053;-70
2023/08/30 03:22:32;;;;;;;0.10;0.10;;;14.30;99.90;;;;;;4945572;28;20046;-70
2023/08/30 03:24:58;;;;;;;0.00;0.00;;;14.30;99.90;;;;;;4926727;28;20034;-70
2023/08/30 03:27:24;;;;;;;1.17;1.10;;;14.40;99.90;;;;;;4940546;28;20049;-69
2023/08/30 03:29:49;;;;;;;0.20;0.20;;;14.40;99.90;;;;;;4910892;28;20525;-70
2023/08/30 03:32:18;;;;;;;0.65;0.65;;;14.40;99.90;;;;;;4979801;28;20082;-70
2023/08/30 03:34:47;;;;;;;0.10;0.10;;;14.40;99.90;;;;;;4920483;28;20056;-70
2023/08/30 03:37:15;;;;;;;0.20;0.20;;;14.40;99.90;;;;;;4936971;28;20056;-70
2023/08/30 03:39:41;;;;;;;0.10;0.10;;;14.40;99.90;;;;;;4906123;28;20462;-71
2023/08/30 03:42:07;;;;;;;0.00;0.00;;;14.40;99.90;;;;;;4917634;28;20139;-70
2023/08/30 03:44:33;;;;;;;0.43;0.43;;;14.40;99.90;;;;;;4915599;28;20062;-70
2023/08/30 03:46:59;;;;;;;1.13;0.93;;;14.40;99.90;;;;;;4947917;28;20050;-70
2023/08/30 03:49:24;;;;;;;1.98;0.73;;;14.50;99.90;;;;;;4931584;28;20158;-70
2023/08/30 03:51:50;;;;;;;0.47;0.47;;;14.50;99.90;;;;;;4906450;28;20041;-70
2023/08/30 03:54:18;;;;;;;0.10;0.10;;;14.40;99.90;;;;;;4925723;28;20488;-70
2023/08/30 03:56:45;;;;;;;0.10;0.10;;;14.40;99.90;;;;;;4932476;28;20494;-70
2023/08/30 03:59:11;;;;;;;0.63;0.63;;;14.40;99.90;;;;;;4934537;28;20070;-70
2023/08/30 04:01:37;;;;;;;0.13;0.13;;;14.40;99.90;;;;;;4947370;28;20066;-70
2023/08/30 04:04:02;;;;;;;0.93;0.90;;;14.40;99.90;;;;;;4933222;28;20168;-70
2023/08/30 04:06:28;;;;;;;0.10;0.10;;;14.30;99.90;;;;;;4914848;28;20734;-70
2023/08/30 04:08:53;;;;;;;0.50;0.22;;;14.30;99.90;;;;;;4927465;28;20046;-70
2023/08/30 04:11:19;;;;;;;0.30;0.30;;;14.30;99.90;;;;;;4942454;28;20079;-70
2023/08/30 04:13:45;;;;;;;0.10;0.10;;;14.30;99.90;;;;;;4930709;28;20037;-70
2023/08/30 04:16:10;;;;;;;0.10;0.10;;;14.30;99.90;;;;;;4955318;28;20092;-70
2023/08/30 04:18:36;;;;;;;0.30;0.30;;;14.30;99.90;;;;;;4931821;28;20515;-70
2023/08/30 04:21:02;;;;;;;0.60;0.52;;;14.30;99.90;;;;;;4912289;28;20043;-70
2023/08/30 04:23:29;;;;;;;0.43;0.43;;;14.30;99.90;;;;;;4931030;28;20083;-70
2023/08/30 04:25:55;;;;;;;0.00;0.00;;;14.30;99.90;;;;;;4946538;28;20124;-70
2023/08/30 04:28:20;;;;;;;0.00;0.00;;;14.30;99.90;;;;;;4941968;28;20131;-70
2023/08/30 04:30:46;;;;;;;0.32;0.32;;;14.30;99.90;;;;;;4949204;28;20600;-70
2023/08/30 04:33:12;;;;;;;0.20;0.20;;;14.30;99.90;;;;;;4913479;28;20199;-70
2023/08/30 04:35:38;;;;;;;0.30;0.30;;;14.30;99.90;;;;;;4910495;28;20102;-70
2023/08/30 04:38:04;;;;;;;0.00;0.00;;;14.30;99.90;;;;;;4965516;28;20404;-70
2023/08/30 04:40:30;;;;;;;1.38;1.27;;;14.30;99.90;;;;;;4934943;28;20050;-70
2023/08/30 04:42:58;;;;;;;0.00;0.00;;;14.30;99.90;;;;;;4918743;28;20091;-70
2023/08/30 04:45:23;;;;;;;1.85;1.02;;;14.40;99.90;;;;;;4941543;28;20072;-70
2023/08/30 04:47:49;;;;;;;0.10;0.10;;;14.40;99.90;;;;;;4906384;28;20048;-70
2023/08/30 04:50:15;;;;;;;0.50;0.43;;;14.40;99.90;;;;;;4923167;28;20041;-70
2023/08/30 04:52:42;;;;;;;0.20;0.20;;;14.40;99.90;;;;;;4923654;28;20036;-70
2023/08/30 04:55:08;;;;;;;1.85;0.88;;;14.40;99.90;;;;;;4944743;28;20069;-70
2023/08/30 04:57:34;;;;;;;0.20;0.20;;;14.40;99.90;;;;;;4956781;28;20038;-70
2023/08/30 05:00:04;;;;;;;0.20;0.20;;;14.40;99.90;;;;;;4923816;28;20143;-70
2023/08/30 05:02:29;;;;;;;0.00;0.00;;;14.40;99.90;;;;;;4926435;28;20510;-70
2023/08/30 05:04:55;;;;;;;0.00;0.00;;;14.40;99.90;;;;;;4903933;28;20099;-70
2023/08/30 05:07:21;;;;;;;0.30;0.30;;;14.40;99.90;;;;;;4951948;28;20077;-70
2023/08/30 05:09:46;;;;;;;1.40;1.05;;;14.40;99.90;;;;;;4970728;28;20566;-70
2023/08/30 05:12:12;;;;;;;4.43;1.65;;;14.40;99.90;;;;;;4931078;28;20052;-70
2023/08/30 05:14:37;;;;;;;21.35;1.65;;;14.40;99.90;;;;;;4926107;28;20518;-70
2023/08/30 05:17:03;;;;;;;0.32;0.32;;;14.40;99.90;;;;;;4911143;28;20045;-70
2023/08/30 05:19:29;;;;;;;0.55;0.55;;;14.40;99.90;;;;;;4910628;28;20498;-70
2023/08/30 05:21:55;;;;;;;0.65;0.30;;;14.40;99.90;;;;;;4923521;28;20064;-72
2023/08/30 05:24:21;;;;;;;0.52;0.43;;;14.40;99.90;;;;;;4916495;28;20047;-71
2023/08/30 05:26:48;;;;;;;0.20;0.20;;;14.40;99.90;;;;;;4956375;28;20095;-71
2023/08/30 05:29:15;;;;;;;0.00;0.00;;;14.30;99.90;;;;;;4924592;28;20123;-71
2023/08/30 05:31:41;;;;;;;0.80;0.80;;;14.40;99.90;;;;;;4918462;28;20119;-71
2023/08/30 05:34:06;;;;;;;1.35;0.77;;;14.40;99.90;;;;;;4924783;28;20188;-71
2023/08/30 05:36:32;;;;;;;0.80;0.73;;;14.40;99.90;;;;;;4954828;28;20893;-71
2023/08/30 05:38:58;;;;;;;0.88;0.85;;;14.40;99.90;;;;;;4918988;28;20122;-71
2023/08/30 05:41:23;;;;;;;0.65;0.60;;;14.40;99.90;;;;;;4943672;28;20080;-71
2023/08/30 05:43:49;;;;;;;2.47;0.88;;;14.40;99.90;;;;;;4947429;28;20052;-71
2023/08/30 05:46:15;;;;;;;1.10;0.75;;;14.40;99.90;;;;;;4947447;28;20061;-70
2023/08/30 05:48:41;;;;;;;0.20;0.20;;;14.40;99.90;;;;;;4912430;28;20041;-70
2023/08/30 05:51:07;;;;;;;0.43;0.43;;;14.40;99.90;;;;;;4975526;28;20041;-70
2023/08/30 05:53:32;;;;;;;0.20;0.20;;;14.50;99.90;;;;;;4915215;28;20048;-71
2023/08/30 05:55:58;;;;;;;0.32;0.32;;;14.40;99.90;;;;;;4959374;28;20104;-71
2023/08/30 05:58:23;;;;;;;1.17;0.45;;;14.40;99.90;;;;;;4948713;28;20439;-71
2023/08/30 06:00:49;;;;;;;0.20;0.20;;;14.40;99.90;;;;;;4923100;28;20040;-70
2023/08/30 06:03:15;;;;;;;0.13;0.13;;;14.40;99.90;;;;;;4944391;28;20609;-71
2023/08/30 06:05:40;;;;;;;0.40;0.40;;;14.40;99.90;;;;;;4935254;28;20748;-70
2023/08/30 06:08:07;;;;;;;0.10;0.10;;;14.40;99.90;;;;;;4933372;28;20048;-71
2023/08/30 06:10:33;;;;;;;0.85;0.85;;;14.40;99.90;;;;;;4939832;28;20093;-71
2023/08/30 06:12:59;;;;;;;0.50;0.50;;;14.40;99.90;;;;;;4940460;28;20095;-70
2023/08/30 06:15:26;;;;;;;1.85;1.05;;;14.40;99.90;;;;;;4941832;28;20044;-71
2023/08/30 06:17:51;;;;;;;0.22;0.20;;;14.40;99.90;;;;;;4943905;28;20038;-70
2023/08/30 06:20:17;;;;;;;2.38;1.38;;;14.40;99.90;;;;;;4909899;28;20115;-70
2023/08/30 06:22:42;;;;;;;0.63;0.63;;;14.50;99.90;;;;;;4908500;28;20115;-70
2023/08/30 06:25:09;;;;;;;0.60;0.60;;;14.50;99.90;;;;;;4967986;28;20040;-70
2023/08/30 06:27:43;;;;;;;0.20;0.20;;;14.50;99.90;;;;;;4939238;28;20576;-69
2023/08/30 06:30:12;;;;;;;1.13;1.08;;;14.60;99.90;;;;;;4952058;28;20068;-70
2023/08/30 06:32:38;;;;;;;0.22;0.05;;;14.60;99.90;;;;;;4970716;28;20486;-70
2023/08/30 06:35:04;;;;;;;1.10;1.02;;;14.70;99.90;;;;;;4954310;28;20054;-70
2023/08/30 06:37:29;;;;;;;0.20;0.20;;;14.70;99.90;;;;;;4932301;28;20045;-71
2023/08/30 06:39:55;;;;;;;0.55;0.55;;;14.80;99.90;;;;;;4925720;28;20048;-71
2023/08/30 06:42:21;;;;;;;0.28;0.28;;;14.90;99.90;;;;;;4933333;28;20485;-71
2023/08/30 06:44:46;;;;;;;0.50;0.50;;;15.10;99.90;;;;;;4947559;28;20125;-70
2023/08/30 06:47:12;;;;;;;0.10;0.10;;;15.20;99.90;;;;;;4944538;28;20412;-71
2023/08/30 06:49:37;;;;;;;0.40;0.40;;;15.30;99.90;;;;;;4952845;28;20099;-71
2023/08/30 06:52:04;;;;;;;3.13;0.75;;;15.30;99.90;;;;;;4968719;28;20149;-70
2023/08/30 06:54:34;;;;;;;0.45;0.45;;;15.30;99.90;;;;;;4911498;28;20456;-70
2023/08/30 06:57:03;;;;;;;0.30;0.30;;;15.50;99.90;;;;;;4951398;28;20049;-70
2023/08/30 06:59:28;;;;;;;0.68;0.68;;;15.50;99.90;;;;;;4921874;28;20044;-70
2023/08/30 07:01:54;;;;;;;0.00;0.00;;;15.60;99.90;;;;;;4925419;28;20041;-71
2023/08/30 07:04:20;;;;;;;0.35;0.35;;;15.70;99.90;;;;;;4923769;28;20133;-69
2023/08/30 07:06:46;;;;;;;0.75;0.70;;;15.70;99.90;;;;;;4966582;28;20046;-70
2023/08/30 07:09:11;;;;;;;0.70;0.70;;;15.70;99.90;;;;;;4931708;28;20052;-71
2023/08/30 07:11:44;;;;;;;0.80;0.63;;;15.70;99.90;;;;;;4933002;28;20058;-71
2023/08/30 07:14:09;;;;;;;0.10;0.10;;;15.70;99.90;;;;;;4928677;28;20055;-70
2023/08/30 07:16:35;;;;;;;0.15;0.15;;;15.70;99.90;;;;;;4974958;28;20041;-71
2023/08/30 07:19:02;;;;;;;0.47;0.47;;;15.70;99.90;;;;;;4948497;28;20048;-71
2023/08/30 07:21:27;;;;;;;0.38;0.38;;;15.70;99.90;;;;;;4950078;28;20049;-70
2023/08/30 07:23:56;;;;;;;0.00;0.00;;;15.70;99.90;;;;;;4930856;28;20070;-72
2023/08/30 07:26:22;;;;;;;0.73;0.60;;;15.70;99.90;;;;;;4947197;28;20042;-70
2023/08/30 07:28:48;;;;;;;0.10;0.10;;;15.60;99.90;;;;;;4933278;28;20529;-72
2023/08/30 07:31:15;;;;;;;1.77;1.08;;;15.60;99.90;;;;;;4929914;28;20529;-70
2023/08/30 07:33:41;;;;;;;1.00;0.63;;;15.70;99.90;;;;;;4909797;28;20063;-71
2023/08/30 07:36:08;;;;;;;0.10;0.10;;;15.70;99.90;;;;;;4936235;28;20140;-70
2023/08/30 07:38:34;;;;;;;0.45;0.45;;;15.70;99.90;;;;;;4923753;28;20055;-71
2023/08/30 07:41:00;;;;;;;0.70;0.70;;;15.70;99.90;;;;;;4923603;28;20051;-71
2023/08/30 07:43:26;;;;;;;0.35;0.35;;;15.80;99.90;;;;;;4955663;28;20038;-71
2023/08/30 07:45:52;;;;;;;1.55;1.45;;;15.80;99.90;;;;;;4957576;28;20084;-71
2023/08/30 07:48:17;;;;;;;0.05;0.05;;;15.90;99.90;;;;;;4923093;28;20104;-70
2023/08/30 07:50:43;;;;;;;1.95;1.80;;;15.90;99.90;;;;;;4935661;28;20393;-71
2023/08/30 07:53:09;;;;;;;0.32;0.32;;;16.00;99.90;;;;;;4953039;28;20519;-71
2023/08/30 07:55:36;;;;;;;0.43;0.43;;;16.00;99.90;;;;;;4948882;28;20062;-71
2023/08/30 07:58:02;;;;;;;0.65;0.65;;;16.10;99.90;;;;;;4944900;28;20072;-71
2023/08/30 08:00:29;;;;;;;0.13;0.13;;;16.10;99.90;;;;;;4933382;28;20050;-71
2023/08/30 08:02:54;;;;;;;6.13;0.57;;;16.10;99.90;;;;;;4912355;28;20051;-70
2023/08/30 08:05:20;;;;;;;0.10;0.10;;;16.10;99.90;;;;;;4941753;28;20044;-70
2023/08/30 08:07:46;;;;;;;0.77;0.47;;;16.20;99.90;;;;;;4960806;28;20394;-71
2023/08/30 08:10:11;;;;;;;0.38;0.38;;;16.20;99.90;;;;;;4946299;28;20411;-71
2023/08/30 08:12:37;;;;;;;1.35;1.15;;;16.30;99.90;;;;;;4931112;28;20503;-70
2023/08/30 08:15:03;;;;;;;0.50;0.50;;;16.30;99.90;;;;;;4900577;28;20045;-71
2023/08/30 08:17:29;;;;;;;1.10;1.00;;;16.30;99.90;;;;;;4952544;28;20052;-71
2023/08/30 08:19:55;;;;;;;1.65;1.08;;;16.30;99.90;;;;;;4982663;28;20448;-71
2023/08/30 08:22:20;;;;;;;0.10;0.10;;;16.30;99.90;;;;;;4916162;28;20503;-71
2023/08/30 08:24:46;;;;;;;1.30;1.20;;;16.20;99.90;;;;;;4964696;28;20045;-70
2023/08/30 08:27:12;;;;;;;1.08;0.82;;;16.20;99.90;;;;;;4935164;28;20037;-70
2023/08/30 08:29:38;;;;;;;0.82;0.40;;;16.10;99.90;;;;;;4959732;28;20050;-71
2023/08/30 08:32:04;;;;;;;7.97;2.38;;;16.00;99.90;;;;;;4953251;28;20038;-71
2023/08/30 08:34:30;;;;;;;0.63;0.63;;;16.00;99.90;;;;;;4961020;28;20065;-70
2023/08/30 08:36:56;;;;;;;10.20;0.80;;;15.90;99.90;;;;;;4939813;28;20473;-70
2023/08/30 08:39:21;;;;;;;0.10;0.10;;;15.90;99.90;;;;;;4924146;28;20088;-70
2023/08/30 08:41:48;;;;;;;0.43;0.43;;;15.90;99.90;;;;;;4914931;28;20465;-70
2023/08/30 08:44:14;;;;;;;0.52;0.38;;;15.80;99.90;;;;;;4903076;28;20670;-70
2023/08/30 08:46:41;;;;;;;0.00;0.00;;;15.80;99.90;;;;;;4941656;28;20044;-70
2023/08/30 08:49:17;;;;;;;3.20;0.63;;;15.60;99.90;;;;;;4969484;28;20046;-70
2023/08/30 08:51:43;;;;;;;0.17;0.17;;;15.60;99.90;;;;;;4892699;28;20040;-71
2023/08/30 08:54:10;;;;;;;0.35;0.35;;;15.60;99.90;;;;;;4941697;28;20060;-71
2023/08/30 08:56:36;;;;;;;0.10;0.10;;;15.60;99.90;;;;;;4939296;28;20532;-70
2023/08/30 08:59:03;;;;;;;0.10;0.10;;;15.50;99.90;;;;;;4914345;28;20071;-70
2023/08/30 09:01:29;;;;;;;0.08;0.08;;;15.60;99.90;;;;;;4931717;28;20065;-70
2023/08/30 09:03:55;;;;;;;0.00;0.00;;;15.60;99.90;;;;;;4959904;28;20120;-70
2023/08/30 09:06:23;;;;;;;0.00;0.00;;;15.60;99.90;;;;;;4956103;28;20059;-70
2023/08/30 09:08:48;;;;;;;0.00;0.00;;;15.70;99.90;;;;;;4975167;28;20043;-71
2023/08/30 09:11:14;;;;;;;0.30;0.30;;;15.60;99.90;;;;;;4931995;28;20057;-71
2023/08/30 09:13:41;;;;;;;0.35;0.35;;;15.60;99.90;;;;;;4971000;28;20459;-70
2023/08/30 09:16:16;;;;;;;0.30;0.30;;;15.60;99.90;;;;;;4968985;28;20044;-70
2023/08/30 09:18:42;;;;;;;0.03;0.03;;;15.60;99.90;;;;;;4958804;28;20119;-71
2023/08/30 09:21:09;;;;;;;0.22;0.20;;;15.60;99.90;;;;;;4926295;28;20461;-70
2023/08/30 09:23:35;;;;;;;0.80;0.70;;;15.60;99.90;;;;;;4933893;28;20115;-70
2023/08/30 09:26:02;;;;;;;0.73;0.68;;;15.60;99.90;;;;;;4966045;28;20038;-70
2023/08/30 09:28:28;;;;;;;0.10;0.10;;;15.50;99.90;;;;;;4938087;28;20120;-69
2023/08/30 09:30:54;;;;;;;0.00;0.00;;;15.50;99.90;;;;;;4945114;28;20393;-71
2023/08/30 09:33:37;;;;;;;1.08;0.80;;;15.50;99.90;;;;;;4958897;28;20136;-71
2023/08/30 09:36:10;;;;;;;0.10;0.10;;;15.50;99.90;;;;;;4951522;28;20072;-70
2023/08/30 09:38:37;;;;;;;0.20;0.20;;;15.50;99.90;;;;;;4934566;28;20040;-71
2023/08/30 09:41:04;;;;;;;0.00;0.00;;;15.50;99.90;;;;;;4931407;28;20044;-72
2023/08/30 09:43:30;;;;;;;0.10;0.10;;;15.50;99.90;;;;;;4919049;28;20075;-72
2023/08/30 09:45:57;;;;;;;0.28;0.28;;;15.50;99.90;;;;;;4949179;28;20470;-72
2023/08/30 09:48:28;;;;;;;0.00;0.00;;;15.50;99.90;;;;;;4912210;28;20044;-72
2023/08/30 09:50:57;;;;;;;0.70;0.70;;;15.50;99.90;;;;;;4899724;28;20488;-72
2023/08/30 09:53:27;;;;;;;0.00;0.00;;;15.50;99.90;;;;;;4935134;28;20050;-72
2023/08/30 09:55:54;;;;;;;0.00;0.00;;;15.60;99.90;;;;;;4966154;28;20044;-71
2023/08/30 09:58:21;;;;;;;0.03;0.03;;;15.60;99.90;;;;;;4958475;28;20052;-72
2023/08/30 10:00:48;;;;;;;0.55;0.55;;;15.60;99.90;;;;;;4900757;28;20041;-71
2023/08/30 10:03:15;;;;;;;0.00;0.00;;;15.70;99.90;;;;;;4905302;28;20044;-71
2023/08/30 10:05:42;;;;;;;0.00;0.00;;;15.60;99.90;;;;;;4918496;28;20067;-71
2023/08/30 10:08:09;;;;;;;0.00;0.00;;;15.60;99.90;;;;;;4911629;28;20484;-71
2023/08/30 10:10:35;;;;;;;0.00;0.00;;;15.60;99.90;;;;;;4958903;28;20052;-71
2023/08/30 10:13:02;;;;;;;0.10;0.10;;;15.50;99.90;;;;;;4932554;28;20056;-71
2023/08/30 10:15:33;;;;;;;0.00;0.00;;;15.50;99.90;;;;;;4942949;28;20032;-71
2023/08/30 10:18:00;;;;;;;1.45;0.20;;;15.50;99.90;;;;;;4964976;28;20402;-71
2023/08/30 10:20:27;;;;;;;2.90;0.60;;;15.40;99.90;;;;;;4916141;28;20127;-71
2023/08/30 10:22:55;;;;;;;0.90;0.30;;;15.40;99.90;;;;;;4927519;28;20046;-71
2023/08/30 10:25:24;;;;;;;0.00;0.00;;;15.40;99.90;;;;;;4960515;28;20067;-71
2023/08/30 10:27:51;;;;;;;0.10;0.10;;;15.50;99.90;;;;;;4950528;28;20048;-72
2023/08/30 10:30:19;;;;;;;0.00;0.00;;;15.30;99.90;;;;;;4976355;28;20183;-70
2023/08/30 10:32:45;;;;;;;0.30;0.30;;;15.30;99.90;;;;;;4913198;28;20052;-71
2023/08/30 10:35:15;;;;;;;0.43;0.43;;;15.30;99.90;;;;;;4926873;28;20065;-71
2023/08/30 10:37:42;;;;;;;0.20;0.20;;;15.40;99.90;;;;;;4964889;28;20054;-71
2023/08/30 10:40:08;;;;;;;0.08;0.08;;;15.40;99.90;;;;;;4957996;28;20125;-71
2023/08/30 10:42:34;;;;;;;0.28;0.28;;;15.40;99.90;;;;;;4914244;28;20571;-71
2023/08/30 10:45:05;;;;;;;0.00;0.00;;;15.50;99.90;;;;;;4925920;28;20052;-71
2023/08/30 10:47:32;;;;;;;0.25;0.25;;;15.60;99.90;;;;;;4974648;28;20059;-71
2023/08/30 10:49:59;;;;;;;0.05;0.05;;;15.60;99.90;;;;;;4947608;28;20078;-71
2023/08/30 10:52:27;;;;;;;0.80;0.80;;;15.60;99.90;;;;;;4920119;28;20056;-71
2023/08/30 10:54:52;;;;;;;0.00;0.00;;;15.60;99.90;;;;;;4976409;28;20038;-71
2023/08/30 10:57:24;;;;;;;0.10;0.10;;;15.60;99.90;;;;;;4961987;28;20048;-71
2023/08/30 11:00:20;;;;;;;0.00;0.00;;;15.60;99.90;;;;;;4933031;28;20076;-70
2023/08/30 11:02:48;;;;;;;0.13;0.13;;;15.60;99.90;;;;;;4935003;28;20120;-71
2023/08/30 11:05:16;;;;;;;0.00;0.00;;;15.50;99.90;;;;;;4972563;28;20486;-70
2023/08/30 11:07:43;;;;;;;0.60;0.60;;;15.50;99.90;;;;;;4940104;28;20070;-70
2023/08/30 11:10:09;;;;;;;0.00;0.00;;;15.50;99.90;;;;;;4902848;28;20082;-71
2023/08/30 11:12:35;;;;;;;0.10;0.10;;;15.60;99.90;;;;;;4942436;28;20079;-71
2023/08/30 11:15:02;;;;;;;0.00;0.00;;;15.60;99.90;;;;;;4967346;28;20073;-71
2023/08/30 11:17:28;;;;;;;0.40;0.40;;;15.60;99.90;;;;;;4917475;28;20431;-71
2023/08/30 11:20:04;;;;;;;0.50;0.50;;;15.60;99.90;;;;;;4954281;28;20468;-71
2023/08/30 11:22:30;;;;;;;0.60;0.60;;;15.50;99.90;;;;;;4928003;28;20566;-71
2023/08/30 11:24:56;;;;;;;0.00;0.00;;;15.50;99.90;;;;;;4933044;28;20141;-72
2023/08/30 11:27:21;;;;;;;0.00;0.00;;;15.50;99.90;;;;;;4971102;28;20061;-73
2023/08/30 11:29:47;;;;;;;0.22;0.22;;;15.50;99.90;;;;;;4937266;28;20039;-73
2023/08/30 11:32:13;;;;;;;0.10;0.10;;;15.50;99.90;;;;;;4950390;28;20054;-73
2023/08/30 11:34:38;;;;;;;0.60;0.52;;;15.50;99.90;;;;;;4940194;28;20050;-73
2023/08/30 11:37:04;;;;;;;0.40;0.40;;;15.50;99.90;;;;;;4962775;28;20047;-73
2023/08/30 11:39:30;;;;;;;0.10;0.10;;;15.50;99.90;;;;;;4932500;28;20043;-73
2023/08/30 11:41:56;;;;;;;0.13;0.13;;;15.50;99.90;;;;;;4918410;28;20130;-74
2023/08/30 11:44:28;;;;;;;0.10;0.10;;;15.40;99.90;;;;;;4974088;28;20075;-74
2023/08/30 11:47:00;;;;;;;0.00;0.00;;;15.50;99.90;;;;;;4943222;28;20460;-72
2023/08/30 11:49:27;;;;;;;0.20;0.20;;;15.50;99.90;;;;;;4936171;28;20037;-72
2023/08/30 11:51:56;;;;;;;0.05;0.05;;;15.60;99.90;;;;;;4929323;28;20119;-71
2023/08/30 11:54:23;;;;;;;0.00;0.00;;;15.60;99.90;;;;;;4944689;28;20564;-72
2023/08/30 11:56:49;;;;;;;0.00;0.00;;;15.70;99.90;;;;;;4926405;28;20053;-73
2023/08/30 11:59:23;;;;;;;0.10;0.10;;;15.70;99.90;;;;;;4920847;28;20584;-72
2023/08/30 12:01:52;;;;;;;0.28;0.28;;;15.60;99.90;;;;;;4950134;28;20099;-72
2023/08/30 12:04:18;;;;;;;0.05;0.05;;;15.60;99.90;;;;;;4922845;28;20506;-71
2023/08/30 12:06:52;;;;;;;0.00;0.00;;;15.80;99.90;;;;;;4967236;28;20128;-71
2023/08/30 12:09:17;;;;;;;0.20;0.20;;;15.80;99.90;;;;;;4919435;28;20547;-70
2023/08/30 12:11:44;;;;;;;0.10;0.10;;;15.90;99.90;;;;;;4937233;28;20071;-72
2023/08/30 12:14:09;;;;;;;0.00;0.00;;;15.90;99.90;;;;;;4918203;28;20454;-71
2023/08/30 12:16:35;;;;;;;0.00;0.00;;;15.90;99.90;;;;;;4976840;28;20057;-72
2023/08/30 12:19:09;;;;;;;0.00;0.00;;;15.90;99.90;;;;;;4943680;28;20136;-72
2023/08/30 12:21:44;;;;;;;0.00;0.00;;;15.80;99.90;;;;;;4943610;28;20044;-72
2023/08/30 12:24:10;;;;;;;0.08;0.08;;;15.80;99.90;;;;;;4913056;28;20439;-71
2023/08/30 12:26:39;;;;;;;0.10;0.10;;;15.80;99.90;;;;;;4920265;28;20103;-71
2023/08/30 12:29:06;;;;;;;0.00;0.00;;;15.90;99.90;;;;;;4951169;28;20117;-71
2023/08/30 12:31:32;;;;;;;0.00;0.00;;;15.90;99.90;;;;;;4945543;28;20175;-71
2023/08/30 12:33:58;;;;;;;0.00;0.00;;;15.80;99.90;;;;;;4922064;28;20507;-71
2023/08/30 12:36:24;;;;;;;0.00;0.00;;;15.70;99.90;;;;;;4919764;28;20056;-71
2023/08/30 12:38:50;;;;;;;0.13;0.13;;;15.80;99.90;;;;;;4962775;28;20032;-71
2023/08/30 12:41:16;;;;;;;0.00;0.00;;;15.80;99.90;;;;;;4929147;28;20052;-72
2023/08/30 12:43:41;;;;;;;0.00;0.00;;;15.80;99.90;;;;;;4943370;28;20049;-71
2023/08/30 12:46:07;;;;;;;0.15;0.15;;;15.80;99.90;;;;;;4933883;28;20037;-71